createdAt,value
2019-04-25T00:00:11.685Z,30.40
2019-04-25T00:01:13.468Z,30.47
2019-04-25T00:02:16.245Z,30.54
2019-04-25T00:02:53.854Z,30.59
2019-04-25T00:03:33.444Z,30.59
2019-04-25T00:04:12.228Z,30.66
2019-04-25T00:04:51.600Z,30.66
2019-04-25T00:05:31.136Z,30.63
2019-04-25T00:06:12.208Z,30.72
2019-04-25T00:06:52.227Z,30.76
2019-04-25T00:07:32.840Z,30.78
2019-04-25T00:08:12.262Z,30.82
2019-04-25T00:08:50.038Z,30.90
2019-04-25T00:09:29.621Z,30.94
2019-04-25T00:10:07.724Z,30.93
2019-04-25T00:10:45.581Z,30.93
2019-04-25T00:11:25.436Z,31.02
2019-04-25T00:12:05.401Z,31.10
2019-04-25T00:12:44.500Z,31.10
2019-04-25T00:13:23.395Z,31.15
2019-04-25T00:14:01.543Z,31.17
2019-04-25T00:14:39.612Z,31.22
2019-04-25T00:15:17.960Z,31.24
2019-04-25T00:15:55.764Z,31.27
2019-04-25T00:16:33.825Z,31.30
2019-04-25T00:17:11.816Z,31.31
2019-04-25T00:17:49.836Z,31.33
2019-04-25T00:18:28.778Z,31.35
2019-04-25T00:19:09.330Z,31.36
2019-04-25T00:19:47.082Z,31.39
2019-04-25T00:20:24.927Z,31.41
2019-04-25T00:21:09.442Z,31.43
2019-04-25T00:22:07.544Z,31.46
2019-04-25T00:23:02.031Z,31.48
2019-04-25T00:23:42.439Z,31.51
2019-04-25T00:24:35.453Z,31.54
2019-04-25T00:25:31.617Z,31.54
2019-04-25T00:26:23.230Z,31.63
2019-04-25T00:27:02.188Z,31.69
2019-04-25T00:27:41.493Z,31.71
2019-04-25T00:28:19.577Z,31.75
2019-04-25T00:29:02.022Z,31.79
2019-04-25T00:29:43.840Z,31.82
2019-04-25T00:30:22.622Z,31.86
2019-04-25T00:31:02.428Z,31.89
2019-04-25T00:31:40.989Z,31.91
2019-04-25T00:32:21.554Z,31.93
2019-04-25T00:32:59.483Z,31.96
2019-04-25T00:33:38.512Z,31.96
2019-04-25T00:34:16.253Z,31.96
2019-04-25T00:34:54.166Z,31.97
2019-04-25T00:35:33.153Z,32.01
2019-04-25T00:36:12.131Z,32.04
2019-04-25T00:36:51.653Z,32.07
2019-04-25T00:37:29.381Z,32.12
2019-04-25T00:38:07.201Z,32.17
2019-04-25T00:38:47.616Z,32.22
2019-04-25T00:39:24.636Z,32.26
2019-04-25T00:40:03.830Z,32.28
2019-04-25T00:40:42.752Z,32.34
2019-04-25T00:41:21.444Z,32.37
2019-04-25T00:42:00.301Z,32.41
2019-04-25T00:42:41.580Z,32.45
2019-04-25T00:43:19.403Z,32.51
2019-04-25T00:43:58.506Z,32.55
2019-04-25T00:44:39.077Z,32.59
2019-04-25T00:45:16.951Z,32.62
2019-04-25T00:45:54.827Z,32.66
2019-04-25T00:46:34.031Z,32.71
2019-04-25T00:47:11.896Z,32.76
2019-04-25T00:47:51.880Z,32.83
2019-04-25T00:48:31.714Z,32.88
2019-04-25T00:49:12.273Z,32.93
2019-04-25T00:49:50.053Z,32.98
2019-04-25T00:50:27.733Z,33.01
2019-04-25T00:51:08.172Z,33.05
2019-04-25T00:51:48.746Z,33.09
2019-04-25T00:52:31.464Z,33.11
2019-04-25T00:53:14.475Z,33.16
2019-04-25T00:53:54.821Z,33.18
2019-04-25T00:54:32.653Z,33.22
2019-04-25T00:55:26.071Z,33.28
2019-04-25T00:55:56.056Z,33.34
2019-04-25T00:56:35.586Z,33.38
2019-04-25T00:57:17.064Z,33.44
2019-04-25T00:58:03.359Z,33.46
2019-04-25T00:58:48.901Z,33.50
2019-04-25T00:59:43.884Z,33.56
2019-04-25T01:00:49.003Z,33.61
2019-04-25T01:01:54.179Z,33.67
2019-04-25T01:02:37.241Z,33.71
2019-04-25T01:03:21.478Z,33.79
2019-04-25T01:03:59.212Z,33.83
2019-04-25T01:04:37.147Z,33.87
2019-04-25T01:05:18.678Z,33.91
2019-04-25T01:05:57.611Z,33.94
2019-04-25T01:06:38.529Z,33.97
2019-04-25T01:07:17.436Z,34.01
2019-04-25T01:07:55.202Z,34.05
2019-04-25T01:08:32.855Z,34.10
2019-04-25T01:09:18.872Z,34.12
2019-04-25T01:10:03.169Z,34.10
2019-04-25T01:10:42.090Z,34.10
2019-04-25T01:11:21.400Z,34.13
2019-04-25T01:12:04.689Z,34.15
2019-04-25T01:12:44.557Z,34.17
2019-04-25T01:13:22.425Z,34.21
2019-04-25T01:14:02.162Z,34.23
2019-04-25T01:14:41.891Z,34.26
2019-04-25T01:15:21.442Z,34.27
2019-04-25T01:16:03.690Z,34.30
2019-04-25T01:16:42.127Z,34.31
2019-04-25T01:17:22.974Z,34.31
2019-04-25T01:18:02.260Z,34.35
2019-04-25T01:18:40.015Z,34.38
2019-04-25T01:19:17.865Z,34.44
2019-04-25T01:19:58.080Z,34.45
2019-04-25T01:20:36.978Z,34.47
2019-04-25T01:21:14.711Z,34.48
2019-04-25T01:21:54.803Z,34.49
2019-04-25T01:22:35.385Z,34.53
2019-04-25T01:23:14.362Z,34.56
2019-04-25T01:23:54.522Z,34.62
2019-04-25T01:24:33.918Z,34.63
2019-04-25T01:25:13.894Z,34.56
2019-04-25T01:25:53.430Z,34.50
2019-04-25T01:26:33.876Z,34.41
2019-04-25T01:27:13.485Z,34.34
2019-04-25T01:27:52.227Z,34.30
2019-04-25T01:28:35.558Z,34.28
2019-04-25T01:29:13.683Z,34.30
2019-04-25T01:29:54.184Z,34.33
2019-04-25T01:30:33.981Z,34.37
2019-04-25T01:31:17.027Z,34.44
2019-04-25T01:31:56.390Z,34.50
2019-04-25T01:32:38.931Z,34.59
2019-04-25T01:33:17.123Z,34.65
2019-04-25T01:33:55.592Z,34.75
2019-04-25T01:34:45.060Z,34.82
2019-04-25T01:35:34.552Z,34.89
2019-04-25T01:36:33.275Z,34.94
2019-04-25T01:37:23.952Z,35.00
2019-04-25T01:38:26.365Z,35.04
2019-04-25T01:39:09.861Z,35.07
2019-04-25T01:39:55.330Z,35.12
2019-04-25T01:40:49.796Z,35.14
2019-04-25T01:41:44.274Z,35.19
2019-04-25T01:42:47.872Z,35.23
2019-04-25T01:43:35.490Z,35.27
2019-04-25T01:44:40.663Z,35.27
2019-04-25T01:45:19.542Z,35.29
2019-04-25T01:45:58.622Z,35.37
2019-04-25T01:46:38.516Z,35.42
2019-04-25T01:47:17.288Z,35.49
2019-04-25T01:47:56.334Z,35.52
2019-04-25T01:48:34.214Z,35.56
2019-04-25T01:49:14.010Z,35.60
2019-04-25T01:49:52.826Z,35.64
2019-04-25T01:50:31.137Z,35.65
2019-04-25T01:51:08.956Z,35.70
2019-04-25T01:51:50.387Z,35.74
2019-04-25T01:52:33.558Z,35.78
2019-04-25T01:53:12.396Z,35.84
2019-04-25T01:53:50.524Z,35.90
2019-04-25T01:54:30.913Z,35.96
2019-04-25T01:55:10.705Z,36.02
2019-04-25T01:55:56.011Z,36.07
2019-04-25T01:56:29.914Z,36.11
2019-04-25T01:57:07.707Z,36.16
2019-04-25T01:57:45.562Z,36.23
2019-04-25T01:58:23.716Z,36.27
2019-04-25T01:59:01.617Z,36.28
2019-04-25T01:59:39.449Z,36.29
2019-04-25T02:00:23.602Z,36.25
2019-04-25T02:01:01.445Z,36.26
2019-04-25T02:01:42.088Z,36.26
2019-04-25T02:02:23.647Z,36.23
2019-04-25T02:03:01.630Z,36.25
2019-04-25T02:03:44.204Z,36.23
2019-04-25T02:04:23.164Z,36.22
2019-04-25T02:05:01.063Z,36.25
2019-04-25T02:05:40.212Z,36.28
2019-04-25T02:06:24.809Z,36.30
2019-04-25T02:07:08.154Z,36.33
2019-04-25T02:07:47.038Z,36.37
2019-04-25T02:08:25.085Z,36.39
2019-04-25T02:09:04.206Z,36.43
2019-04-25T02:09:44.295Z,36.47
2019-04-25T02:10:23.438Z,36.53
2019-04-25T02:11:17.928Z,36.55
2019-04-25T02:12:20.306Z,36.60
2019-04-25T02:13:03.879Z,36.63
2019-04-25T02:13:41.800Z,36.69
2019-04-25T02:14:19.616Z,36.72
2019-04-25T02:15:03.927Z,36.76
2019-04-25T02:15:40.887Z,36.77
2019-04-25T02:16:20.428Z,36.79
2019-04-25T02:17:00.362Z,36.79
2019-04-25T02:17:38.046Z,36.82
2019-04-25T02:18:15.923Z,36.80
2019-04-25T02:18:56.455Z,36.83
2019-04-25T02:19:35.797Z,36.83
2019-04-25T02:20:15.800Z,36.85
2019-04-25T02:20:58.864Z,36.87
2019-04-25T02:21:35.314Z,36.89
2019-04-25T02:22:14.545Z,36.93
2019-04-25T02:22:54.459Z,36.96
2019-04-25T02:23:31.821Z,37.00
2019-04-25T02:24:11.483Z,37.04
2019-04-25T02:24:54.611Z,37.06
2019-04-25T02:25:33.227Z,37.08
2019-04-25T02:26:16.033Z,37.06
2019-04-25T02:26:54.821Z,37.10
2019-04-25T02:27:34.117Z,37.16
2019-04-25T02:28:13.936Z,37.21
2019-04-25T02:28:55.165Z,37.27
2019-04-25T02:29:33.253Z,37.32
2019-04-25T02:30:16.030Z,37.37
2019-04-25T02:30:58.394Z,37.40
2019-04-25T02:31:35.137Z,37.42
2019-04-25T02:32:14.504Z,37.42
2019-04-25T02:32:56.987Z,37.31
2019-04-25T02:33:33.947Z,37.20
2019-04-25T02:34:17.504Z,37.03
2019-04-25T02:34:55.286Z,36.89
2019-04-25T02:35:34.719Z,36.74
2019-04-25T02:36:14.473Z,36.60
2019-04-25T02:36:57.443Z,36.48
2019-04-25T02:37:35.306Z,36.36
2019-04-25T02:38:14.717Z,36.24
2019-04-25T02:38:54.173Z,36.15
2019-04-25T02:39:36.860Z,36.06
2019-04-25T02:40:14.446Z,35.98
2019-04-25T02:40:55.850Z,35.93
2019-04-25T02:41:31.747Z,35.86
2019-04-25T02:42:10.822Z,35.79
2019-04-25T02:42:48.685Z,35.78
2019-04-25T02:43:26.732Z,35.76
2019-04-25T02:44:09.446Z,35.76
2019-04-25T02:44:49.842Z,35.75
2019-04-25T02:46:00.555Z,35.72
2019-04-25T02:46:59.172Z,35.85
2019-04-25T02:48:01.466Z,36.07
2019-04-25T02:49:31.798Z,36.23
2019-04-25T02:50:12.100Z,36.27
2019-04-25T02:51:01.281Z,36.18
2019-04-25T02:51:46.475Z,36.14
2019-04-25T02:52:41.284Z,36.23
2019-04-25T02:53:36.599Z,36.36
2019-04-25T02:54:14.081Z,36.48
2019-04-25T02:54:54.518Z,36.49
2019-04-25T02:55:36.797Z,36.43
2019-04-25T02:56:27.390Z,36.42
2019-04-25T02:56:54.700Z,36.33
2019-04-25T02:57:34.578Z,36.27
2019-04-25T02:58:15.553Z,36.22
2019-04-25T02:58:56.461Z,36.17
2019-04-25T02:59:36.974Z,36.15
2019-04-25T03:00:25.063Z,36.11
2019-04-25T03:01:14.337Z,36.07
2019-04-25T03:01:44.474Z,36.07
2019-04-25T03:02:24.866Z,36.17
2019-04-25T03:03:06.950Z,36.29
2019-04-25T03:03:44.938Z,36.33
2019-04-25T03:04:24.576Z,36.40
2019-04-25T03:05:06.255Z,36.40
2019-04-25T03:05:41.825Z,36.36
2019-04-25T03:06:19.651Z,36.29
2019-04-25T03:06:59.113Z,36.22
2019-04-25T03:07:37.051Z,36.22
2019-04-25T03:08:16.522Z,36.16
2019-04-25T03:08:56.843Z,36.12
2019-04-25T03:09:36.437Z,36.07
2019-04-25T03:10:17.187Z,36.02
2019-04-25T03:10:58.262Z,35.97
2019-04-25T03:11:36.280Z,35.95
2019-04-25T03:12:26.601Z,35.91
2019-04-25T03:12:54.440Z,35.88
2019-04-25T03:13:34.391Z,35.84
2019-04-25T03:14:12.146Z,35.81
2019-04-25T03:14:50.122Z,35.80
2019-04-25T03:15:27.958Z,35.89
2019-04-25T03:16:08.662Z,36.01
2019-04-25T03:16:47.098Z,36.19
2019-04-25T03:17:27.283Z,36.35
2019-04-25T03:18:10.856Z,36.48
2019-04-25T03:18:54.467Z,36.60
2019-04-25T03:19:48.994Z,36.72
2019-04-25T03:20:45.352Z,36.78
2019-04-25T03:21:30.691Z,36.82
2019-04-25T03:22:11.810Z,36.91
2019-04-25T03:22:54.677Z,36.89
2019-04-25T03:23:43.203Z,36.80
2019-04-25T03:24:21.858Z,36.75
2019-04-25T03:25:00.285Z,36.90
2019-04-25T03:25:39.260Z,37.03
2019-04-25T03:26:18.273Z,37.17
2019-04-25T03:26:57.344Z,37.27
2019-04-25T03:27:35.196Z,37.38
2019-04-25T03:28:16.411Z,37.46
2019-04-25T03:28:54.209Z,37.53
2019-04-25T03:29:32.106Z,37.61
2019-04-25T03:30:17.947Z,37.69
2019-04-25T03:30:57.793Z,37.77
2019-04-25T03:31:36.736Z,37.89
2019-04-25T03:32:19.578Z,37.97
2019-04-25T03:32:56.323Z,38.05
2019-04-25T03:33:37.758Z,38.10
2019-04-25T03:34:20.655Z,38.09
2019-04-25T03:34:58.386Z,38.13
2019-04-25T03:35:45.172Z,38.14
2019-04-25T03:36:17.310Z,38.22
2019-04-25T03:36:55.105Z,38.27
2019-04-25T03:37:35.711Z,38.34
2019-04-25T03:38:14.487Z,38.37
2019-04-25T03:38:54.070Z,38.44
2019-04-25T03:39:33.511Z,38.48
2019-04-25T03:40:11.823Z,38.51
2019-04-25T03:40:50.995Z,38.56
2019-04-25T03:41:34.171Z,38.59
2019-04-25T03:42:12.101Z,38.63
2019-04-25T03:42:49.995Z,38.57
2019-04-25T03:43:30.146Z,38.52
2019-04-25T03:44:08.149Z,38.51
2019-04-25T03:44:50.019Z,38.55
2019-04-25T03:45:27.978Z,38.57
2019-04-25T03:46:06.229Z,38.52
2019-04-25T03:46:49.803Z,38.40
2019-04-25T03:47:28.652Z,38.35
2019-04-25T03:48:07.497Z,38.35
2019-04-25T03:48:46.440Z,38.34
2019-04-25T03:49:24.230Z,38.28
2019-04-25T03:50:04.429Z,38.27
2019-04-25T03:50:44.132Z,38.27
2019-04-25T03:51:24.159Z,38.17
2019-04-25T03:52:05.241Z,38.11
2019-04-25T03:52:43.668Z,38.08
2019-04-25T03:53:21.461Z,38.10
2019-04-25T03:53:59.308Z,38.08
2019-04-25T03:54:39.829Z,37.93
2019-04-25T03:55:17.682Z,38.01
2019-04-25T03:55:58.734Z,38.00
2019-04-25T03:56:37.666Z,38.08
2019-04-25T03:57:15.526Z,38.12
2019-04-25T03:57:53.930Z,38.18
2019-04-25T03:58:35.059Z,38.11
2019-04-25T03:59:16.144Z,37.91
2019-04-25T03:59:54.002Z,37.81
2019-04-25T04:00:36.410Z,37.75
2019-04-25T04:01:15.599Z,37.80
2019-04-25T04:01:54.197Z,37.79
2019-04-25T04:02:35.608Z,37.73
2019-04-25T04:03:15.766Z,37.68
2019-04-25T04:03:56.619Z,37.73
2019-04-25T04:04:36.122Z,37.68
2019-04-25T04:05:14.898Z,37.64
2019-04-25T04:05:54.207Z,37.65
2019-04-25T04:06:34.517Z,37.74
2019-04-25T04:07:14.330Z,37.80
2019-04-25T04:07:53.535Z,37.84
2019-04-25T04:08:31.441Z,37.85
2019-04-25T04:09:11.972Z,37.90
2019-04-25T04:09:49.787Z,37.91
2019-04-25T04:10:27.558Z,37.92
2019-04-25T04:11:10.133Z,37.97
2019-04-25T04:11:47.750Z,38.04
2019-04-25T04:12:25.524Z,38.10
2019-04-25T04:13:05.147Z,38.17
2019-04-25T04:13:44.596Z,38.21
2019-04-25T04:14:24.041Z,38.12
2019-04-25T04:15:03.706Z,37.92
2019-04-25T04:15:43.332Z,37.75
2019-04-25T04:16:23.728Z,37.64
2019-04-25T04:17:17.136Z,37.53
2019-04-25T04:18:00.028Z,37.46
2019-04-25T04:18:45.457Z,37.43
2019-04-25T04:19:26.335Z,37.52
2019-04-25T04:20:34.042Z,37.60
2019-04-25T04:21:27.242Z,37.66
2019-04-25T04:22:15.095Z,37.64
2019-04-25T04:22:59.455Z,37.69
2019-04-25T04:23:48.795Z,37.70
2019-04-25T04:24:44.065Z,37.71
2019-04-25T04:25:23.779Z,37.73
2019-04-25T04:26:03.406Z,37.78
2019-04-25T04:26:41.202Z,37.85
2019-04-25T04:27:19.434Z,37.91
2019-04-25T04:27:57.138Z,37.93
2019-04-25T04:28:36.713Z,37.94
2019-04-25T04:29:15.289Z,37.96
2019-04-25T04:29:54.665Z,38.04
2019-04-25T04:30:35.285Z,38.09
2019-04-25T04:31:14.344Z,38.12
2019-04-25T04:31:52.875Z,38.20
2019-04-25T04:32:31.988Z,38.23
2019-04-25T04:33:21.491Z,38.33
2019-04-25T04:33:50.319Z,38.36
2019-04-25T04:34:28.054Z,38.36
2019-04-25T04:35:07.135Z,38.38
2019-04-25T04:35:46.822Z,38.42
2019-04-25T04:36:26.334Z,38.49
2019-04-25T04:37:04.165Z,38.55
2019-04-25T04:37:43.151Z,38.61
2019-04-25T04:38:22.248Z,38.69
2019-04-25T04:38:59.971Z,38.73
2019-04-25T04:39:38.727Z,38.82
2019-04-25T04:40:17.618Z,38.85
2019-04-25T04:40:57.798Z,38.85
2019-04-25T04:41:35.581Z,38.71
2019-04-25T04:42:14.995Z,38.61
2019-04-25T04:42:57.196Z,38.60
2019-04-25T04:44:24.797Z,38.58
2019-04-25T04:45:03.615Z,38.54
2019-04-25T04:45:44.989Z,38.53
2019-04-25T04:46:23.967Z,38.53
2019-04-25T04:47:03.801Z,38.48
2019-04-25T04:47:43.258Z,38.53
2019-04-25T04:48:21.252Z,38.53
2019-04-25T04:49:05.315Z,38.60
2019-04-25T04:49:43.976Z,38.63
2019-04-25T04:50:23.269Z,38.67
2019-04-25T04:51:03.284Z,38.72
2019-04-25T04:51:41.194Z,38.78
2019-04-25T04:52:19.108Z,38.81
2019-04-25T04:52:56.989Z,38.79
2019-04-25T04:53:35.836Z,38.85
2019-04-25T04:54:17.122Z,38.76
2019-04-25T04:55:05.286Z,38.80
2019-04-25T04:55:38.023Z,38.83
2019-04-25T04:56:16.789Z,38.86
2019-04-25T04:56:55.450Z,38.88
2019-04-25T04:57:36.139Z,38.90
2019-04-25T04:58:17.647Z,38.95
2019-04-25T04:58:55.599Z,38.97
2019-04-25T04:59:33.771Z,39.00
2019-04-25T05:00:14.161Z,39.03
2019-04-25T05:00:51.645Z,39.01
2019-04-25T05:01:34.620Z,38.96
2019-04-25T05:02:24.498Z,38.96
2019-04-25T05:03:27.307Z,38.99
2019-04-25T05:04:54.689Z,38.97
2019-04-25T05:06:24.060Z,39.00
2019-04-25T05:07:51.574Z,39.07
2019-04-25T05:09:19.795Z,39.09
2019-04-25T05:10:47.282Z,39.10
2019-04-25T05:12:15.242Z,39.10
2019-04-25T05:13:44.124Z,39.16
2019-04-25T05:15:12.597Z,39.20
2019-04-25T05:16:40.930Z,39.19
2019-04-25T05:18:08.710Z,39.18
2019-04-25T05:19:36.212Z,39.26
2019-04-25T05:21:04.293Z,39.33
2019-04-25T05:22:33.259Z,39.32
2019-04-25T05:24:00.711Z,39.25
2019-04-25T05:25:28.143Z,39.24
2019-04-25T05:26:55.935Z,39.23
2019-04-25T05:28:24.600Z,39.26
2019-04-25T05:29:53.884Z,39.26
2019-04-25T05:31:25.503Z,39.20
2019-04-25T05:32:54.359Z,39.11
2019-04-25T05:34:22.063Z,39.10
2019-04-25T05:35:49.816Z,39.01
2019-04-25T05:37:17.588Z,39.07
2019-04-25T05:38:45.322Z,39.15
2019-04-25T05:39:24.034Z,39.23
2019-04-25T05:40:03.696Z,39.33
2019-04-25T05:40:53.918Z,39.40
2019-04-25T05:41:40.605Z,39.47
2019-04-25T05:42:28.977Z,39.51
2019-04-25T05:43:09.632Z,39.58
2019-04-25T05:43:46.199Z,39.60
2019-04-25T05:44:25.151Z,39.56
2019-04-25T05:45:01.669Z,39.57
2019-04-25T05:45:38.321Z,39.53
2019-04-25T05:46:16.863Z,39.56
2019-04-25T05:46:54.522Z,39.57
2019-04-25T05:47:33.243Z,39.57
2019-04-25T05:48:09.478Z,39.57
2019-04-25T05:48:45.737Z,39.57
2019-04-25T05:49:24.262Z,39.59
2019-04-25T05:50:00.433Z,39.55
2019-04-25T05:50:38.549Z,39.57
2019-04-25T05:51:15.860Z,39.60
2019-04-25T05:51:53.921Z,39.63
2019-04-25T05:52:31.372Z,39.61
2019-04-25T05:53:08.483Z,39.62
2019-04-25T05:53:47.193Z,39.62
2019-04-25T05:54:26.903Z,39.64
2019-04-25T05:55:05.956Z,39.67
2019-04-25T05:55:44.886Z,39.70
2019-04-25T05:56:26.862Z,39.65
2019-04-25T05:57:05.658Z,39.52
2019-04-25T05:57:49.562Z,39.38
2019-04-25T05:58:25.883Z,39.27
2019-04-25T05:59:05.504Z,39.27
2019-04-25T05:59:45.214Z,39.32
2019-04-25T06:00:25.095Z,39.34
2019-04-25T06:01:05.477Z,39.36
2019-04-25T06:01:43.526Z,39.39
2019-04-25T06:02:25.370Z,39.43
2019-04-25T06:03:03.825Z,39.44
2019-04-25T06:03:44.501Z,39.47
2019-04-25T06:04:24.639Z,39.42
2019-04-25T06:05:03.516Z,39.42
2019-04-25T06:05:41.424Z,39.31
2019-04-25T06:06:19.288Z,39.22
2019-04-25T06:06:57.249Z,39.14
2019-04-25T06:07:35.205Z,39.07
2019-04-25T06:08:14.127Z,38.97
2019-04-25T06:09:00.563Z,38.87
2019-04-25T06:09:58.077Z,38.80
2019-04-25T06:11:09.387Z,38.71
2019-04-25T06:12:04.726Z,38.58
2019-04-25T06:13:00.843Z,38.44
2019-04-25T06:13:45.181Z,38.31
2019-04-25T06:14:24.071Z,38.16
2019-04-25T06:15:03.018Z,37.99
2019-04-25T06:15:45.312Z,37.89
2019-04-25T06:16:37.175Z,37.81
2019-04-25T06:17:20.137Z,37.72
2019-04-25T06:18:16.139Z,37.56
2019-04-25T06:19:14.154Z,37.49
2019-04-25T06:19:49.515Z,37.40
2019-04-25T06:20:29.746Z,37.24
2019-04-25T06:21:10.601Z,37.18
2019-04-25T06:21:50.764Z,37.12
2019-04-25T06:22:47.105Z,37.05
2019-04-25T06:24:04.274Z,36.99
2019-04-25T06:24:48.502Z,36.89
2019-04-25T06:25:30.706Z,36.78
2019-04-25T06:26:19.084Z,36.71
2019-04-25T06:26:56.369Z,36.69
2019-04-25T06:27:39.458Z,36.65
2019-04-25T06:28:19.462Z,36.62
2019-04-25T06:28:59.808Z,36.61
2019-04-25T06:29:38.854Z,36.60
2019-04-25T06:30:30.092Z,36.56
2019-04-25T06:31:10.314Z,36.52
2019-04-25T06:32:03.385Z,36.48
2019-04-25T06:32:31.222Z,36.48
2019-04-25T06:33:10.196Z,36.44
2019-04-25T06:33:49.948Z,36.43
2019-04-25T06:34:31.702Z,36.40
2019-04-25T06:35:09.728Z,36.35
2019-04-25T06:35:47.587Z,36.30
2019-04-25T06:36:27.580Z,36.28
2019-04-25T06:37:06.236Z,36.27
2019-04-25T06:37:44.112Z,36.23
2019-04-25T06:38:26.040Z,36.19
2019-04-25T06:39:04.104Z,36.18
2019-04-25T06:39:44.223Z,36.14
2019-04-25T06:40:24.161Z,36.12
2019-04-25T06:41:03.571Z,36.11
2019-04-25T06:41:45.290Z,36.11
2019-04-25T06:42:24.801Z,36.09
2019-04-25T06:43:03.412Z,36.08
2019-04-25T06:43:44.246Z,36.07
2019-04-25T06:44:37.328Z,36.04
2019-04-25T06:45:36.089Z,36.03
2019-04-25T06:46:30.641Z,36.00
2019-04-25T06:47:25.659Z,35.99
2019-04-25T06:48:09.858Z,35.97
2019-04-25T06:48:57.860Z,35.95
2019-04-25T06:49:37.788Z,35.95
2019-04-25T06:50:15.916Z,35.93
2019-04-25T06:50:58.337Z,35.92
2019-04-25T06:51:55.228Z,35.90
2019-04-25T06:52:35.319Z,35.89
2019-04-25T06:53:13.562Z,35.87
2019-04-25T06:53:53.494Z,35.85
2019-04-25T06:54:31.625Z,35.85
2019-04-25T06:55:10.200Z,35.86
2019-04-25T06:55:49.793Z,35.85
2019-04-25T06:56:27.661Z,35.86
2019-04-25T06:57:06.738Z,35.88
2019-04-25T06:57:45.013Z,35.86
2019-04-25T06:58:26.883Z,35.83
2019-04-25T06:59:05.773Z,35.82
2019-04-25T06:59:44.729Z,35.81
2019-04-25T07:00:27.271Z,35.80
2019-04-25T07:01:05.660Z,35.80
2019-04-25T07:01:45.233Z,35.77
2019-04-25T07:02:25.367Z,35.77
2019-04-25T07:03:04.182Z,35.83
2019-04-25T07:03:42.176Z,35.84
2019-04-25T07:04:26.978Z,35.91
2019-04-25T07:05:07.333Z,35.91
2019-04-25T07:05:45.251Z,35.89
2019-04-25T07:06:26.066Z,35.91
2019-04-25T07:07:12.106Z,35.93
2019-04-25T07:07:47.239Z,35.96
2019-04-25T07:08:26.919Z,36.00
2019-04-25T07:09:07.609Z,36.04
2019-04-25T07:09:47.121Z,36.06
2019-04-25T07:10:26.148Z,36.14
2019-04-25T07:11:04.175Z,36.17
2019-04-25T07:11:48.140Z,36.20
2019-04-25T07:12:29.291Z,36.23
2019-04-25T07:13:06.480Z,36.28
2019-04-25T07:13:48.676Z,36.26
2019-04-25T07:14:29.479Z,36.28
2019-04-25T07:15:07.930Z,36.30
2019-04-25T07:15:46.960Z,36.32
2019-04-25T07:16:27.287Z,36.37
2019-04-25T07:17:07.268Z,36.45
2019-04-25T07:17:46.845Z,36.53
2019-04-25T07:18:31.248Z,36.67
2019-04-25T07:19:06.133Z,36.77
2019-04-25T07:19:44.209Z,36.89
2019-04-25T07:20:26.117Z,37.02
2019-04-25T07:21:04.776Z,37.12
2019-04-25T07:21:44.451Z,37.23
2019-04-25T07:22:23.944Z,37.35
2019-04-25T07:23:03.616Z,37.46
2019-04-25T07:23:46.164Z,37.56
2019-04-25T07:24:24.810Z,37.66
2019-04-25T07:25:04.215Z,37.74
2019-04-25T07:25:46.577Z,37.82
2019-04-25T07:26:40.953Z,37.89
2019-04-25T07:27:37.282Z,37.97
2019-04-25T07:28:35.633Z,37.99
2019-04-25T07:29:33.722Z,37.96
2019-04-25T07:30:35.471Z,37.89
2019-04-25T07:31:20.019Z,37.85
2019-04-25T07:32:08.622Z,37.81
2019-04-25T07:32:50.853Z,37.78
2019-04-25T07:33:35.049Z,37.70
2019-04-25T07:34:19.420Z,37.68
2019-04-25T07:35:00.751Z,37.62
2019-04-25T07:35:38.604Z,37.59
2019-04-25T07:36:16.474Z,37.51
2019-04-25T07:36:57.025Z,37.49
2019-04-25T07:37:39.044Z,37.48
2019-04-25T07:38:16.324Z,37.42
2019-04-25T07:39:05.543Z,37.38
2019-04-25T07:39:36.434Z,37.37
2019-04-25T07:40:17.253Z,37.30
2019-04-25T07:40:54.979Z,37.24
2019-04-25T07:41:34.282Z,37.18
2019-04-25T07:42:16.075Z,37.12
2019-04-25T07:42:53.929Z,37.13
2019-04-25T07:43:34.211Z,37.17
2019-04-25T07:44:14.558Z,37.13
2019-04-25T07:44:55.206Z,37.10
2019-04-25T07:45:34.698Z,37.05
2019-04-25T07:46:13.549Z,37.03
2019-04-25T07:46:51.319Z,37.00
2019-04-25T07:47:31.281Z,36.99
2019-04-25T07:48:09.076Z,36.98
2019-04-25T07:48:49.684Z,36.95
2019-04-25T07:49:28.481Z,36.96
2019-04-25T07:50:07.679Z,36.95
2019-04-25T07:50:48.489Z,36.94
2019-04-25T07:51:28.161Z,36.94
2019-04-25T07:52:07.712Z,36.89
2019-04-25T07:52:47.387Z,36.87
2019-04-25T07:53:30.286Z,36.86
2019-04-25T07:54:08.673Z,36.80
2019-04-25T07:54:48.069Z,36.80
2019-04-25T07:55:27.575Z,36.82
2019-04-25T07:56:05.332Z,36.83
2019-04-25T07:56:44.869Z,36.90
2019-04-25T07:57:23.754Z,36.95
2019-04-25T07:58:03.206Z,37.01
2019-04-25T07:58:50.478Z,37.07
2019-04-25T07:59:23.716Z,37.12
2019-04-25T08:00:03.271Z,37.21
2019-04-25T08:00:41.808Z,37.29
2019-04-25T08:01:19.735Z,37.39
2019-04-25T08:01:57.620Z,37.50
2019-04-25T08:02:35.436Z,37.60
2019-04-25T08:03:13.774Z,37.71
2019-04-25T08:03:53.810Z,37.82
2019-04-25T08:04:34.845Z,37.90
2019-04-25T08:05:14.473Z,37.93
2019-04-25T08:05:56.469Z,38.01
2019-04-25T08:06:37.986Z,37.95
2019-04-25T08:07:17.576Z,37.97
2019-04-25T08:07:55.403Z,38.10
2019-04-25T08:08:33.967Z,38.18
2019-04-25T08:09:15.731Z,38.25
2019-04-25T08:09:54.227Z,38.27
2019-04-25T08:10:41.430Z,38.32
2019-04-25T08:11:19.346Z,38.38
2019-04-25T08:11:57.218Z,38.44
2019-04-25T08:12:35.852Z,38.52
2019-04-25T08:13:15.031Z,38.58
2019-04-25T08:14:11.402Z,38.67
2019-04-25T08:15:07.659Z,38.72
2019-04-25T08:15:53.750Z,38.79
2019-04-25T08:16:34.314Z,38.85
2019-04-25T08:17:14.477Z,38.86
2019-04-25T08:18:04.065Z,38.91
2019-04-25T08:18:43.345Z,38.95
2019-04-25T08:19:23.594Z,38.94
2019-04-25T08:20:01.480Z,38.94
2019-04-25T08:20:40.134Z,38.91
2019-04-25T08:21:18.022Z,38.88
2019-04-25T08:21:55.963Z,38.79
2019-04-25T08:22:50.149Z,38.72
2019-04-25T08:23:15.953Z,38.70
2019-04-25T08:23:53.823Z,38.66
2019-04-25T08:24:34.922Z,38.59
2019-04-25T08:25:13.880Z,38.57
2019-04-25T08:25:51.665Z,38.53
2019-04-25T08:26:31.190Z,38.51
2019-04-25T08:27:13.291Z,38.45
2019-04-25T08:27:53.503Z,38.39
2019-04-25T08:28:48.835Z,38.37
2019-04-25T08:29:15.287Z,38.32
2019-04-25T08:29:54.832Z,38.30
2019-04-25T08:30:36.697Z,38.30
2019-04-25T08:31:16.948Z,38.26
2019-04-25T08:31:54.951Z,38.28
2019-04-25T08:32:35.091Z,38.28
2019-04-25T08:33:15.902Z,38.29
2019-04-25T08:33:55.275Z,38.29
2019-04-25T08:34:35.738Z,38.28
2019-04-25T08:35:16.067Z,38.27
2019-04-25T08:36:08.232Z,38.25
2019-04-25T08:36:38.077Z,38.26
2019-04-25T08:37:20.320Z,38.30
2019-04-25T08:37:59.295Z,38.27
2019-04-25T08:38:38.994Z,38.28
2019-04-25T08:39:17.919Z,38.26
2019-04-25T08:39:58.934Z,38.27
2019-04-25T08:40:40.444Z,38.24
2019-04-25T08:41:18.043Z,38.23
2019-04-25T08:41:56.921Z,38.14
2019-04-25T08:42:36.757Z,38.13
2019-04-25T08:43:15.576Z,38.10
2019-04-25T08:43:54.480Z,37.95
2019-04-25T08:44:33.059Z,37.83
2019-04-25T08:45:13.519Z,37.81
2019-04-25T08:45:51.267Z,37.73
2019-04-25T08:46:28.963Z,37.72
2019-04-25T08:47:06.865Z,37.71
2019-04-25T08:47:44.592Z,37.64
2019-04-25T08:48:26.283Z,37.64
2019-04-25T08:49:14.874Z,37.65
2019-04-25T08:49:59.981Z,37.63
2019-04-25T08:50:45.110Z,37.66
2019-04-25T08:51:23.878Z,37.61
2019-04-25T08:52:01.752Z,37.64
2019-04-25T08:52:40.088Z,37.60
2019-04-25T08:53:23.806Z,37.59
2019-04-25T08:54:06.901Z,37.55
2019-04-25T08:55:04.322Z,37.48
2019-04-25T08:55:48.500Z,37.44
2019-04-25T08:56:28.963Z,37.37
2019-04-25T08:57:09.302Z,37.34
2019-04-25T08:57:58.430Z,37.30
2019-04-25T08:58:46.720Z,37.28
2019-04-25T08:59:57.796Z,37.23
2019-04-25T09:01:04.088Z,37.20
2019-04-25T09:01:50.209Z,37.09
2019-04-25T09:02:54.599Z,37.00
2019-04-25T09:03:44.353Z,36.93
2019-04-25T09:04:46.688Z,36.87
2019-04-25T09:05:37.381Z,36.80
2019-04-25T09:06:14.930Z,36.74
2019-04-25T09:06:54.382Z,36.73
2019-04-25T09:07:34.905Z,36.74
2019-04-25T09:08:11.671Z,36.72
2019-04-25T09:08:49.396Z,36.69
2019-04-25T09:09:28.647Z,36.70
2019-04-25T09:10:07.212Z,36.67
2019-04-25T09:10:45.153Z,36.65
2019-04-25T09:11:24.486Z,36.64
2019-04-25T09:12:04.211Z,36.62
2019-04-25T09:12:43.927Z,36.60
2019-04-25T09:13:21.601Z,36.57
2019-04-25T09:14:01.012Z,36.55